Time;durP1;ratioP1;P1;durP2;ratioP2;P2;SDS_P1;SDS_P2;PMS_P1;PMS_P2;Temp;Humidity;BMP_temperature;BMP_pressure;BME280_temperature;BME280_humidity;BME280_pressure;Samples;Min_cycle;Max_cycle;Signal;HPM_P1;HPM_P2
2023/06/25 00:00:00;;;;;;;;;;;24.50;56.10;;;;;;5130180;27;19926;-61
2023/06/25 00:02:25;;;;;;;;;;;24.50;56.10;;;;;;5130217;27;19919;-62
2023/06/25 00:04:51;;;;;;;;;;;24.50;56.10;;;;;;5095983;28;19927;-62
2023/06/25 00:07:17;;;;;;;;;;;24.50;56.10;;;;;;5096265;28;19928;-62
2023/06/25 00:09:51;;;;;;;;;;;24.50;56.10;;;;;;5114113;28;19927;-61
2023/06/25 00:12:16;;;;;;;;;;;24.50;56.20;;;;;;5094873;28;19920;-62
2023/06/25 00:14:42;;;;;;;;;;;24.50;56.20;;;;;;5129922;27;20396;-62
2023/06/25 00:17:07;;;;;;;;;;;24.50;56.20;;;;;;5114110;28;19920;-62
2023/06/25 00:19:33;;;;;;;;;;;24.50;56.20;;;;;;5113925;28;19973;-62
2023/06/25 00:21:58;;;;;;;;;;;24.40;56.20;;;;;;5114062;28;19926;-62
2023/06/25 00:24:24;;;;;;;;;;;24.50;56.30;;;;;;5113817;28;19919;-62
2023/06/25 00:26:49;;;;;;;;;;;24.50;56.30;;;;;;5095523;28;20346;-62
2023/06/25 00:29:15;;;;;;;;;;;24.50;56.30;;;;;;5095553;28;20389;-62
2023/06/25 00:31:41;;;;;;;;;;;24.50;56.30;;;;;;5113457;28;19928;-64
2023/06/25 00:34:06;;;;;;;;;;;24.40;56.20;;;;;;5113866;28;20027;-61
2023/06/25 00:36:36;;;;;;;;;;;24.40;56.20;;;;;;5113706;28;19926;-61
2023/06/25 00:39:03;;;;;;;;;;;24.40;56.20;;;;;;5095681;28;20351;-61
2023/06/25 00:41:29;;;;;;;;;;;24.40;56.20;;;;;;5095654;28;20236;-62
2023/06/25 00:43:55;;;;;;;;;;;24.40;56.30;;;;;;5113511;28;20320;-62
2023/06/25 00:46:23;;;;;;;;;;;24.40;56.30;;;;;;5095283;28;20439;-62
2023/06/25 00:48:49;;;;;;;;;;;24.40;56.30;;;;;;5095583;28;20004;-62
2023/06/25 00:51:15;;;;;;;;;;;24.40;56.30;;;;;;5113366;28;20385;-62
2023/06/25 00:53:40;;;;;;;;;;;24.40;56.30;;;;;;5095614;28;19943;-62
2023/06/25 00:56:06;;;;;;;;;;;24.40;56.30;;;;;;5095156;28;19926;-62
2023/06/25 00:58:37;;;;;;;;;;;24.30;56.20;;;;;;5095038;28;19927;-61
2023/06/25 01:01:06;;;;;;;;;;;24.30;56.30;;;;;;5095025;28;20362;-62
2023/06/25 01:03:37;;;;;;;;;;;24.30;56.30;;;;;;5095005;28;19920;-61
2023/06/25 01:06:22;;;;;;;;;;;24.30;56.30;;;;;;5113287;28;20374;-62
2023/06/25 01:08:50;;;;;;;;;;;24.30;56.30;;;;;;5095125;28;19941;-62
2023/06/25 01:11:16;;;;;;;;;;;24.30;56.30;;;;;;5113227;28;20294;-62
2023/06/25 01:13:41;;;;;;;;;;;24.30;56.30;;;;;;5094920;28;20267;-62
2023/06/25 01:16:07;;;;;;;;;;;24.30;56.30;;;;;;5113183;28;19965;-62
2023/06/25 01:18:33;;;;;;;;;;;24.30;56.30;;;;;;5095159;28;20310;-61
2023/06/25 01:20:58;;;;;;;;;;;24.30;56.30;;;;;;5095074;28;19920;-62
2023/06/25 01:23:24;;;;;;;;;;;24.30;56.30;;;;;;5094606;28;20018;-62
2023/06/25 01:25:49;;;;;;;;;;;24.30;56.30;;;;;;5094539;28;20374;-62
2023/06/25 01:28:20;;;;;;;;;;;24.20;56.90;;;;;;5129000;27;19919;-62
2023/06/25 01:30:48;;;;;;;;;;;24.30;56.30;;;;;;5094966;28;20400;-62
2023/06/25 01:33:15;;;;;;;;;;;24.20;56.20;;;;;;5094108;28;22250;-61
2023/06/25 01:35:41;;;;;;;;;;;24.20;56.20;;;;;;5094011;28;19920;-62
2023/06/25 01:38:07;;;;;;;;;;;24.20;56.20;;;;;;5094584;28;20320;-61
2023/06/25 01:40:32;;;;;;;;;;;24.20;56.20;;;;;;5112756;28;19951;-61
2023/06/25 01:42:58;;;;;;;;;;;24.20;56.20;;;;;;5094471;28;19920;-64
2023/06/25 01:45:23;;;;;;;;;;;24.20;56.20;;;;;;5094733;28;19920;-62
2023/06/25 01:47:49;;;;;;;;;;;24.20;56.20;;;;;;5112804;28;20074;-62
2023/06/25 01:50:14;;;;;;;;;;;24.20;56.20;;;;;;5094810;28;19964;-62
2023/06/25 01:52:40;;;;;;;;;;;24.20;56.20;;;;;;5094260;28;19924;-62
2023/06/25 01:55:05;;;;;;;;;;;24.20;57.00;;;;;;5094668;28;19920;-62
2023/06/25 01:57:31;;;;;;;;;;;24.10;56.10;;;;;;5112918;28;19920;-62
2023/06/25 01:59:56;;;;;;;;;;;24.20;56.20;;;;;;5094593;28;19931;-62
2023/06/25 02:02:22;;;;;;;;;;;24.20;56.20;;;;;;5094452;28;19927;-62
2023/06/25 02:04:47;;;;;;;;;;;24.10;56.20;;;;;;5094189;28;19920;-62
2023/06/25 02:07:13;;;;;;;;;;;24.10;56.20;;;;;;5112617;28;19919;-62
2023/06/25 02:09:38;;;;;;;;;;;24.10;56.30;;;;;;5112949;28;19941;-62
2023/06/25 02:12:04;;;;;;;;;;;24.10;56.30;;;;;;5094052;28;19924;-62
2023/06/25 02:14:31;;;;;;;;;;;24.10;56.30;;;;;;5094216;28;19973;-62
2023/06/25 02:16:56;;;;;;;;;;;24.10;56.20;;;;;;5112518;28;19931;-62
2023/06/25 02:19:22;;;;;;;;;;;24.10;56.20;;;;;;5094419;28;19920;-62
2023/06/25 02:21:48;;;;;;;;;;;24.10;56.30;;;;;;5112778;28;19965;-62
2023/06/25 02:24:13;;;;;;;;;;;24.10;56.30;;;;;;5112240;28;19927;-61
2023/06/25 02:26:40;;;;;;;;;;;24.10;56.20;;;;;;5094359;28;19920;-62
2023/06/25 02:29:05;;;;;;;;;;;24.10;56.30;;;;;;5094354;28;19997;-61
2023/06/25 02:31:31;;;;;;;;;;;24.00;56.20;;;;;;5127910;28;20385;-62
2023/06/25 02:33:56;;;;;;;;;;;24.10;56.30;;;;;;5112375;28;19931;-61
2023/06/25 02:36:22;;;;;;;;;;;24.00;56.30;;;;;;5097801;28;19919;-62
2023/06/25 02:38:47;;;;;;;;;;;24.10;56.30;;;;;;5116112;28;19920;-62
2023/06/25 02:41:13;;;;;;;;;;;24.00;56.30;;;;;;5132084;27;19923;-64
2023/06/25 02:43:39;;;;;;;;;;;24.00;56.20;;;;;;5115959;28;20014;-62
2023/06/25 02:46:04;;;;;;;;;;;24.00;56.30;;;;;;5131749;27;20020;-61
2023/06/25 02:48:29;;;;;;;;;;;24.00;56.30;;;;;;5115887;28;19942;-61
2023/06/25 02:50:55;;;;;;;;;;;24.00;56.30;;;;;;5097810;28;19920;-62
2023/06/25 02:53:20;;;;;;;;;;;24.00;56.30;;;;;;5097581;28;19927;-62
2023/06/25 02:55:46;;;;;;;;;;;24.00;56.30;;;;;;5131561;27;20344;-62
2023/06/25 02:58:11;;;;;;;;;;;23.90;56.30;;;;;;5097636;28;19975;-62
2023/06/25 03:00:37;;;;;;;;;;;24.00;56.30;;;;;;5097303;28;20381;-61
2023/06/25 03:03:02;;;;;;;;;;;24.00;56.30;;;;;;5115832;28;19920;-62
2023/06/25 03:05:28;;;;;;;;;;;24.00;56.40;;;;;;5115420;28;20271;-62
2023/06/25 03:07:55;;;;;;;;;;;23.90;57.00;;;;;;5131437;27;19962;-61
2023/06/25 03:10:23;;;;;;;;;;;23.90;56.30;;;;;;5097012;28;19926;-61
2023/06/25 03:12:48;;;;;;;;;;;23.90;56.30;;;;;;5131196;27;20006;-62
2023/06/25 03:15:14;;;;;;;;;;;23.90;56.30;;;;;;5115191;28;20003;-62
2023/06/25 03:17:40;;;;;;;;;;;23.90;56.30;;;;;;5097079;28;19920;-61
2023/06/25 03:20:05;;;;;;;;;;;23.90;56.30;;;;;;5097210;28;19920;-62
2023/06/25 03:22:31;;;;;;;;;;;23.90;56.30;;;;;;5131029;27;19930;-61
2023/06/25 03:24:57;;;;;;;;;;;23.90;56.30;;;;;;5097102;28;19930;-62
2023/06/25 03:27:22;;;;;;;;;;;23.90;56.30;;;;;;5096766;28;19920;-62
2023/06/25 03:29:47;;;;;;;;;;;23.90;56.30;;;;;;5096721;28;19970;-62
2023/06/25 03:32:13;;;;;;;;;;;23.90;56.40;;;;;;5114626;28;19969;-62
2023/06/25 03:34:38;;;;;;;;;;;23.90;56.30;;;;;;5096144;28;19927;-62
2023/06/25 03:37:04;;;;;;;;;;;23.90;56.40;;;;;;5096496;28;19920;-62
2023/06/25 03:39:29;;;;;;;;;;;23.90;56.40;;;;;;5114873;28;19919;-62
2023/06/25 03:41:55;;;;;;;;;;;23.90;56.40;;;;;;5096812;28;19920;-62
2023/06/25 03:44:20;;;;;;;;;;;23.80;56.40;;;;;;5114701;28;19927;-62
2023/06/25 03:46:46;;;;;;;;;;;23.90;56.50;;;;;;5096462;28;19942;-62
2023/06/25 03:49:11;;;;;;;;;;;23.80;56.40;;;;;;5096303;28;19920;-61
2023/06/25 03:51:37;;;;;;;;;;;23.80;56.50;;;;;;5096419;28;19928;-62
2023/06/25 03:54:02;;;;;;;;;;;23.80;56.40;;;;;;5096343;28;19926;-62
2023/06/25 03:56:28;;;;;;;;;;;23.80;56.50;;;;;;5114500;28;19927;-62
2023/06/25 03:58:53;;;;;;;;;;;23.80;56.50;;;;;;5096253;28;19945;-62
2023/06/25 04:01:19;;;;;;;;;;;23.80;56.50;;;;;;5096372;28;20019;-62
2023/06/25 04:03:44;;;;;;;;;;;23.80;56.60;;;;;;5096238;28;20381;-61
2023/06/25 04:06:10;;;;;;;;;;;23.80;56.50;;;;;;5114354;28;20378;-62
2023/06/25 04:08:38;;;;;;;;;;;23.80;56.50;;;;;;5096315;28;19919;-62
2023/06/25 04:11:04;;;;;;;;;;;23.80;56.50;;;;;;5114191;28;20252;-61
2023/06/25 04:13:29;;;;;;;;;;;23.80;56.50;;;;;;5095907;28;20015;-62
2023/06/25 04:15:55;;;;;;;;;;;23.70;56.50;;;;;;5114075;28;20158;-62
2023/06/25 04:18:20;;;;;;;;;;;23.80;56.60;;;;;;5095812;28;19962;-62
2023/06/25 04:20:46;;;;;;;;;;;23.80;56.60;;;;;;5096093;28;20276;-61
2023/06/25 04:23:11;;;;;;;;;;;23.70;56.50;;;;;;5095614;28;20370;-61
2023/06/25 04:25:37;;;;;;;;;;;23.70;56.60;;;;;;5095930;28;19923;-62
2023/06/25 04:28:02;;;;;;;;;;;23.70;56.60;;;;;;5095563;28;19920;-62
2023/06/25 04:30:28;;;;;;;;;;;23.70;56.60;;;;;;5095555;28;19931;-62
2023/06/25 04:32:54;;;;;;;;;;;23.70;56.70;;;;;;5113656;28;20378;-62
2023/06/25 04:35:20;;;;;;;;;;;23.70;56.60;;;;;;5113875;28;19927;-62
2023/06/25 04:37:45;;;;;;;;;;;23.70;56.60;;;;;;5113728;28;19919;-62
2023/06/25 04:40:12;;;;;;;;;;;23.70;56.60;;;;;;5095591;28;19920;-62
2023/06/25 04:42:37;;;;;;;;;;;23.70;56.60;;;;;;5095466;28;19924;-62
2023/06/25 04:45:03;;;;;;;;;;;23.70;56.60;;;;;;5095388;28;20121;-62
2023/06/25 04:47:28;;;;;;;;;;;23.70;56.70;;;;;;5095243;28;19920;-62
2023/06/25 04:49:54;;;;;;;;;;;23.70;56.60;;;;;;5095524;28;19923;-62
2023/06/25 04:52:19;;;;;;;;;;;23.70;56.70;;;;;;5113434;28;19923;-62
2023/06/25 04:54:45;;;;;;;;;;;23.70;56.70;;;;;;5095413;28;19920;-61
2023/06/25 04:57:11;;;;;;;;;;;23.70;56.70;;;;;;5094670;28;19927;-62
2023/06/25 04:59:36;;;;;;;;;;;23.70;56.70;;;;;;5113397;28;19993;-61
2023/06/25 05:02:02;;;;;;;;;;;23.70;56.80;;;;;;5095309;28;20366;-62
2023/06/25 05:04:27;;;;;;;;;;;23.70;56.80;;;;;;5094972;28;19966;-62
2023/06/25 05:06:53;;;;;;;;;;;23.70;56.80;;;;;;5095336;28;19920;-62
2023/06/25 05:09:18;;;;;;;;;;;23.70;56.80;;;;;;5094899;28;20342;-62
2023/06/25 05:11:44;;;;;;;;;;;23.70;56.80;;;;;;5095014;28;19923;-62
2023/06/25 05:14:09;;;;;;;;;;;23.70;56.80;;;;;;5094871;28;19970;-62
2023/06/25 05:16:34;;;;;;;;;;;23.70;56.90;;;;;;5113100;28;19920;-62
2023/06/25 05:19:00;;;;;;;;;;;23.70;56.80;;;;;;5095097;28;20364;-62
2023/06/25 05:21:25;;;;;;;;;;;23.70;56.80;;;;;;5094697;28;20402;-62
2023/06/25 05:23:59;;;;;;;;;;;23.70;56.70;;;;;;5129118;27;19919;-61
2023/06/25 05:26:25;;;;;;;;;;;23.70;56.80;;;;;;5113016;28;19970;-62
2023/06/25 05:28:50;;;;;;;;;;;23.70;56.70;;;;;;5113012;28;19964;-62
2023/06/25 05:31:16;;;;;;;;;;;23.60;56.70;;;;;;5094393;28;20130;-61
2023/06/25 05:33:42;;;;;;;;;;;23.70;56.80;;;;;;5094534;28;19924;-62
2023/06/25 05:36:07;;;;;;;;;;;23.70;56.80;;;;;;5094730;28;20060;-62
2023/06/25 05:38:32;;;;;;;;;;;23.70;56.90;;;;;;5094603;28;20402;-62
2023/06/25 05:40:58;;;;;;;;;;;23.60;56.80;;;;;;5094444;28;19920;-61
2023/06/25 05:43:23;;;;;;;;;;;23.70;56.90;;;;;;5112867;28;20007;-62
2023/06/25 05:45:49;;;;;;;;;;;23.60;56.70;;;;;;5112760;28;20287;-62
2023/06/25 05:48:15;;;;;;;;;;;23.60;56.90;;;;;;5094466;28;20057;-62
2023/06/25 05:50:40;;;;;;;;;;;23.70;57.00;;;;;;5094716;28;19973;-62
2023/06/25 05:53:05;;;;;;;;;;;23.60;57.00;;;;;;5112813;28;19920;-61
2023/06/25 05:55:31;;;;;;;;;;;23.60;57.00;;;;;;5094707;28;20336;-62
2023/06/25 05:57:56;;;;;;;;;;;23.70;57.10;;;;;;5112766;28;19923;-62
2023/06/25 06:00:23;;;;;;;;;;;23.60;57.10;;;;;;5094383;28;19923;-62
2023/06/25 06:02:48;;;;;;;;;;;23.60;57.00;;;;;;5094642;28;19959;-62
2023/06/25 06:05:14;;;;;;;;;;;23.60;57.20;;;;;;5112570;28;20330;-61
2023/06/25 06:07:39;;;;;;;;;;;23.70;57.10;;;;;;5112454;28;19919;-62
2023/06/25 06:10:05;;;;;;;;;;;23.70;57.10;;;;;;5098117;28;19926;-62
2023/06/25 06:12:31;;;;;;;;;;;23.70;58.00;;;;;;5098289;28;19920;-62
2023/06/25 06:14:56;;;;;;;;;;;23.60;57.30;;;;;;5098568;28;19935;-62
2023/06/25 06:17:22;;;;;;;;;;;23.60;57.10;;;;;;5098228;28;20402;-62
2023/06/25 06:19:47;;;;;;;;;;;23.60;57.30;;;;;;5098658;28;20286;-62
2023/06/25 06:22:14;;;;;;;;;;;23.70;57.20;;;;;;5098082;28;20190;-62
2023/06/25 06:24:39;;;;;;;;;;;23.70;57.40;;;;;;5098369;28;20014;-62
2023/06/25 06:27:05;;;;;;;;;;;23.70;57.30;;;;;;5097957;28;20057;-62
2023/06/25 06:29:31;;;;;;;;;;;23.60;57.30;;;;;;5132166;27;19920;-62
2023/06/25 06:31:56;;;;;;;;;;;23.60;57.40;;;;;;5115897;28;19928;-62
2023/06/25 06:34:21;;;;;;;;;;;23.70;57.30;;;;;;5132282;27;19967;-62
2023/06/25 06:36:47;;;;;;;;;;;23.60;57.30;;;;;;5116069;28;19920;-62
2023/06/25 06:39:13;;;;;;;;;;;23.60;57.30;;;;;;5116297;28;19934;-61
2023/06/25 06:41:39;;;;;;;;;;;23.70;57.40;;;;;;5115190;28;20347;-61
2023/06/25 06:44:12;;;;;;;;;;;23.60;57.50;;;;;;5097534;28;19934;-62
2023/06/25 06:46:38;;;;;;;;;;;23.60;57.40;;;;;;5097661;28;19952;-62
2023/06/25 06:49:03;;;;;;;;;;;23.70;57.30;;;;;;5115730;28;19924;-62
2023/06/25 06:51:29;;;;;;;;;;;23.70;57.50;;;;;;5115790;28;19927;-62
2023/06/25 06:53:54;;;;;;;;;;;23.70;57.50;;;;;;5098015;28;19926;-62
2023/06/25 06:56:20;;;;;;;;;;;23.70;57.50;;;;;;5097454;28;20283;-62
2023/06/25 06:58:45;;;;;;;;;;;23.70;57.50;;;;;;5115782;28;20038;-62
2023/06/25 07:01:11;;;;;;;;;;;23.70;57.60;;;;;;5097663;28;19920;-61
2023/06/25 07:03:36;;;;;;;;;;;23.70;57.50;;;;;;5097645;28;19985;-62
2023/06/25 07:06:02;;;;;;;;;;;23.70;57.50;;;;;;5115527;28;19919;-62
2023/06/25 07:08:27;;;;;;;;;;;23.70;57.50;;;;;;5097296;28;19967;-62
2023/06/25 07:10:53;;;;;;;;;;;23.70;57.50;;;;;;5097188;28;19920;-63
2023/06/25 07:13:18;;;;;;;;;;;23.70;57.50;;;;;;5096962;28;19927;-61
2023/06/25 07:15:44;;;;;;;;;;;23.70;58.30;;;;;;5097115;28;19920;-62
2023/06/25 07:18:09;;;;;;;;;;;23.70;57.60;;;;;;5115341;28;19989;-62
2023/06/25 07:20:35;;;;;;;;;;;23.70;57.40;;;;;;5096438;28;20045;-62
2023/06/25 07:23:00;;;;;;;;;;;23.70;57.60;;;;;;5097242;28;19927;-61
2023/06/25 07:25:26;;;;;;;;;;;23.70;57.60;;;;;;5115009;28;19927;-62
2023/06/25 07:27:51;;;;;;;;;;;23.70;57.60;;;;;;5131224;27;19973;-62
2023/06/25 07:30:17;;;;;;;;;;;23.70;57.50;;;;;;5096510;28;20412;-62
2023/06/25 07:32:42;;;;;;;;;;;23.70;57.30;;;;;;5130871;27;19930;-62
2023/06/25 07:35:08;;;;;;;;;;;23.70;57.60;;;;;;5130741;27;19927;-62
2023/06/25 07:37:33;;;;;;;;;;;23.70;57.60;;;;;;5109818;28;19955;-62
2023/06/25 07:39:59;;;;;;;;;;;23.70;57.60;;;;;;5094592;28;19920;-62
2023/06/25 07:42:24;;;;;;;;;;;23.70;57.50;;;;;;5110504;28;19927;-62
2023/06/25 07:44:50;;;;;;;;;;;23.70;57.50;;;;;;5094388;28;19920;-61
2023/06/25 07:47:15;;;;;;;;;;;23.70;57.70;;;;;;5076755;28;20359;-62
2023/06/25 07:49:41;;;;;;;;;;;23.70;57.70;;;;;;5076275;28;20375;-61
2023/06/25 07:52:06;;;;;;;;;;;23.70;57.50;;;;;;5076374;28;19935;-62
2023/06/25 07:54:32;;;;;;;;;;;23.70;57.50;;;;;;5076003;28;19920;-62
2023/06/25 07:56:57;;;;;;;;;;;23.70;57.50;;;;;;5110235;28;19920;-62
2023/06/25 07:59:23;;;;;;;;;;;23.70;57.50;;;;;;5076200;28;19920;-61
2023/06/25 08:01:48;;;;;;;;;;;23.80;57.60;;;;;;5075784;28;20401;-62
2023/06/25 08:04:14;;;;;;;;;;;23.70;57.70;;;;;;5093885;28;19965;-62
2023/06/25 08:06:39;;;;;;;;;;;23.70;57.70;;;;;;5093973;28;19946;-62
2023/06/25 08:09:05;;;;;;;;;;;23.80;57.60;;;;;;5109891;28;20371;-62
2023/06/25 08:11:30;;;;;;;;;;;23.80;57.80;;;;;;5075556;28;20403;-62
2023/06/25 08:13:56;;;;;;;;;;;23.70;57.70;;;;;;5075633;28;19920;-62
2023/06/25 08:16:22;;;;;;;;;;;23.80;57.80;;;;;;5093734;28;19920;-62
2023/06/25 08:18:48;;;;;;;;;;;23.80;57.70;;;;;;5075629;28;20394;-62
2023/06/25 08:21:14;;;;;;;;;;;23.80;57.70;;;;;;5075800;28;19920;-62
2023/06/25 08:23:39;;;;;;;;;;;23.80;57.50;;;;;;5093546;28;19926;-62
2023/06/25 08:26:05;;;;;;;;;;;23.80;57.50;;;;;;5128820;27;19920;-62
2023/06/25 08:28:30;;;;;;;;;;;23.80;57.50;;;;;;5095929;28;19920;-62
2023/06/25 08:30:56;;;;;;;;;;;23.80;57.30;;;;;;5095544;28;20382;-62
2023/06/25 08:33:21;;;;;;;;;;;23.80;57.50;;;;;;5094558;28;20386;-62
2023/06/25 08:35:47;;;;;;;;;;;23.80;57.50;;;;;;5129660;27;20022;-61
2023/06/25 08:38:17;;;;;;;;;;;23.80;57.50;;;;;;5095493;28;19927;-62
2023/06/25 08:40:45;;;;;;;;;;;23.80;57.40;;;;;;5114020;28;20319;-62
2023/06/25 08:43:10;;;;;;;;;;;23.70;57.30;;;;;;5095572;28;19920;-62
2023/06/25 08:45:36;;;;;;;;;;;23.80;57.40;;;;;;5113710;28;20391;-62
2023/06/25 08:48:03;;;;;;;;;;;23.80;57.50;;;;;;5129348;27;20336;-62
2023/06/25 08:50:29;;;;;;;;;;;23.80;57.40;;;;;;5095550;28;20000;-62
2023/06/25 08:52:56;;;;;;;;;;;23.90;57.40;;;;;;5095235;28;19971;-62
2023/06/25 08:55:24;;;;;;;;;;;23.80;57.30;;;;;;5095534;28;20286;-62
2023/06/25 08:57:49;;;;;;;;;;;23.90;57.30;;;;;;5095366;28;20008;-62
2023/06/25 09:00:16;;;;;;;;;;;23.90;57.30;;;;;;5113536;28;20018;-62
2023/06/25 09:02:42;;;;;;;;;;;23.90;57.40;;;;;;5129129;27;20370;-62
2023/06/25 09:05:10;;;;;;;;;;;23.90;57.30;;;;;;5095393;28;19920;-62
2023/06/25 09:07:44;;;;;;;;;;;23.90;57.20;;;;;;5095287;28;19968;-62
2023/06/25 09:10:09;;;;;;;;;;;23.90;57.20;;;;;;5113169;28;19924;-61
2023/06/25 09:12:35;;;;;;;;;;;23.90;57.10;;;;;;5094796;28;19976;-62
2023/06/25 09:15:01;;;;;;;;;;;24.00;57.20;;;;;;5095135;28;19999;-61
2023/06/25 09:17:26;;;;;;;;;;;24.00;57.10;;;;;;5094726;28;19928;-62
2023/06/25 09:19:52;;;;;;;;;;;24.00;57.10;;;;;;5113142;28;19920;-62
2023/06/25 09:22:18;;;;;;;;;;;24.00;57.00;;;;;;5095024;28;19969;-62
2023/06/25 09:24:44;;;;;;;;;;;24.00;57.00;;;;;;5112864;28;19972;-62
2023/06/25 09:27:10;;;;;;;;;;;24.00;57.00;;;;;;5095028;28;19967;-62
2023/06/25 09:29:36;;;;;;;;;;;24.00;56.90;;;;;;5094959;28;20022;-62
2023/06/25 09:32:06;;;;;;;;;;;24.00;56.80;;;;;;5112666;28;19923;-62
2023/06/25 09:34:31;;;;;;;;;;;24.10;56.80;;;;;;5112829;28;19920;-62
2023/06/25 09:36:57;;;;;;;;;;;24.10;56.80;;;;;;5094622;28;20297;-62
2023/06/25 09:39:22;;;;;;;;;;;24.10;56.70;;;;;;5094769;28;19919;-62
2023/06/25 09:41:48;;;;;;;;;;;24.10;56.70;;;;;;5094579;28;19920;-62
2023/06/25 09:44:14;;;;;;;;;;;24.10;56.70;;;;;;5094566;28;19957;-62
2023/06/25 09:46:40;;;;;;;;;;;24.10;56.60;;;;;;5094530;28;19920;-62
2023/06/25 09:49:07;;;;;;;;;;;24.10;56.60;;;;;;5112700;28;19980;-61
2023/06/25 09:51:38;;;;;;;;;;;24.10;56.60;;;;;;5094458;28;19924;-62
2023/06/25 09:54:05;;;;;;;;;;;24.20;56.60;;;;;;5094326;28;19926;-62
2023/06/25 09:56:33;;;;;;;;;;;24.20;56.50;;;;;;5112884;28;20316;-62
2023/06/25 09:58:59;;;;;;;;;;;24.20;56.50;;;;;;5112523;28;19923;-62
2023/06/25 10:01:25;;;;;;;;;;;24.10;56.50;;;;;;5094595;28;19941;-62
2023/06/25 10:03:51;;;;;;;;;;;24.20;56.50;;;;;;5094302;28;19920;-62
2023/06/25 10:06:17;;;;;;;;;;;24.20;56.40;;;;;;5094751;28;19920;-62
2023/06/25 10:08:42;;;;;;;;;;;24.20;56.40;;;;;;5094457;28;19920;-62
2023/06/25 10:11:08;;;;;;;;;;;24.20;56.40;;;;;;5112476;28;19950;-62
2023/06/25 10:13:38;;;;;;;;;;;24.20;56.30;;;;;;5094569;28;19927;-62
2023/06/25 10:16:04;;;;;;;;;;;24.20;56.30;;;;;;5094532;28;20400;-61
2023/06/25 10:18:29;;;;;;;;;;;24.20;56.30;;;;;;5094308;28;19990;-62
2023/06/25 10:20:57;;;;;;;;;;;24.20;56.30;;;;;;5112419;28;20002;-62
2023/06/25 10:23:23;;;;;;;;;;;24.20;56.30;;;;;;5094557;28;19926;-62
2023/06/25 10:25:56;;;;;;;;;;;24.20;56.20;;;;;;5093961;28;19920;-62
2023/06/25 10:28:37;;;;;;;;;;;24.20;56.20;;;;;;5128250;28;20395;-62
2023/06/25 10:31:11;;;;;;;;;;;24.30;56.30;;;;;;5094116;28;19963;-62
2023/06/25 10:33:37;;;;;;;;;;;24.30;56.30;;;;;;5128163;28;20022;-62
2023/06/25 10:36:05;;;;;;;;;;;24.30;56.30;;;;;;5112144;28;19963;-62
2023/06/25 10:38:31;;;;;;;;;;;24.30;56.30;;;;;;5094039;28;19926;-62
2023/06/25 10:40:56;;;;;;;;;;;24.30;56.20;;;;;;5128319;28;20277;-62
2023/06/25 10:43:22;;;;;;;;;;;24.30;56.20;;;;;;5093999;28;19923;-62
2023/06/25 10:45:49;;;;;;;;;;;24.30;56.20;;;;;;5094297;28;19923;-61
2023/06/25 10:48:14;;;;;;;;;;;24.30;56.20;;;;;;5112165;28;19967;-62
2023/06/25 10:50:40;;;;;;;;;;;24.30;56.20;;;;;;5128184;28;19958;-62
2023/06/25 10:53:11;;;;;;;;;;;24.30;56.10;;;;;;5127927;28;19939;-62
2023/06/25 10:55:37;;;;;;;;;;;24.30;56.20;;;;;;5095013;28;19924;-62
2023/06/25 10:58:03;;;;;;;;;;;24.30;56.10;;;;;;5097707;28;19949;-62
2023/06/25 11:00:28;;;;;;;;;;;24.30;56.10;;;;;;5097282;28;20186;-62
2023/06/25 11:02:54;;;;;;;;;;;24.30;56.10;;;;;;5097826;28;19919;-62
2023/06/25 11:05:21;;;;;;;;;;;24.30;56.10;;;;;;5097329;28;19974;-64
2023/06/25 11:07:54;;;;;;;;;;;24.40;56.20;;;;;;5115701;28;20397;-64
2023/06/25 11:10:22;;;;;;;;;;;24.30;56.10;;;;;;5097217;28;19920;-62
2023/06/25 11:12:47;;;;;;;;;;;24.30;56.10;;;;;;5131296;27;19923;-64
2023/06/25 11:15:14;;;;;;;;;;;24.30;56.00;;;;;;5097450;28;19924;-62
2023/06/25 11:17:40;;;;;;;;;;;24.40;56.10;;;;;;5131185;27;20096;-62
2023/06/25 11:20:06;;;;;;;;;;;24.40;56.10;;;;;;5097333;28;20518;-62
2023/06/25 11:22:37;;;;;;;;;;;24.40;56.10;;;;;;5097199;28;19963;-62
2023/06/25 11:25:05;;;;;;;;;;;24.40;56.10;;;;;;5131362;27;19973;-62
2023/06/25 11:27:31;;;;;;;;;;;24.40;56.00;;;;;;5131074;27;20383;-62
2023/06/25 11:29:58;;;;;;;;;;;24.40;56.00;;;;;;5097017;28;19958;-62
2023/06/25 11:32:25;;;;;;;;;;;24.40;56.00;;;;;;5096636;28;19924;-64
2023/06/25 11:34:50;;;;;;;;;;;24.50;56.00;;;;;;5114038;28;19920;-62
2023/06/25 11:37:18;;;;;;;;;;;24.40;56.00;;;;;;5114930;28;20401;-62
2023/06/25 11:39:45;;;;;;;;;;;24.50;56.00;;;;;;5115466;28;19920;-64
2023/06/25 11:42:11;;;;;;;;;;;24.40;56.00;;;;;;5096807;28;19920;-64
2023/06/25 11:44:37;;;;;;;;;;;24.50;56.00;;;;;;5096856;28;19930;-62
2023/06/25 11:47:02;;;;;;;;;;;24.50;56.00;;;;;;5114685;28;19920;-62
2023/06/25 11:49:28;;;;;;;;;;;24.50;55.90;;;;;;5114610;28;20504;-61
2023/06/25 11:51:53;;;;;;;;;;;24.50;56.00;;;;;;5114846;28;19924;-62
2023/06/25 11:54:19;;;;;;;;;;;24.50;55.90;;;;;;5114810;28;19920;-64
2023/06/25 11:56:44;;;;;;;;;;;24.50;55.90;;;;;;5096660;28;20367;-62
2023/06/25 11:59:10;;;;;;;;;;;24.50;55.90;;;;;;5096257;28;19926;-62
2023/06/25 12:01:35;;;;;;;;;;;24.50;55.80;;;;;;5096521;28;19920;-62
2023/06/25 12:04:01;;;;;;;;;;;24.50;55.80;;;;;;5114816;28;19927;-62
2023/06/25 12:06:27;;;;;;;;;;;24.50;56.00;;;;;;5095963;28;20018;-62
2023/06/25 12:08:52;;;;;;;;;;;24.60;55.90;;;;;;5096358;28;20014;-61
2023/06/25 12:11:18;;;;;;;;;;;24.50;55.80;;;;;;5114290;28;20297;-62
2023/06/25 12:13:43;;;;;;;;;;;24.60;55.80;;;;;;5096478;28;19923;-62
2023/06/25 12:16:09;;;;;;;;;;;24.60;55.80;;;;;;5114303;28;20385;-62
2023/06/25 12:18:34;;;;;;;;;;;24.50;55.70;;;;;;5095924;28;19927;-62
2023/06/25 12:21:00;;;;;;;;;;;24.60;55.80;;;;;;5095842;28;19959;-65
2023/06/25 12:23:25;;;;;;;;;;;24.60;55.80;;;;;;5096272;28;19919;-62
2023/06/25 12:25:51;;;;;;;;;;;24.60;55.80;;;;;;5114005;28;19920;-62
2023/06/25 12:28:16;;;;;;;;;;;24.60;55.80;;;;;;5095973;28;19930;-64
2023/06/25 12:30:42;;;;;;;;;;;24.60;55.80;;;;;;5113863;28;19972;-62
2023/06/25 12:33:07;;;;;;;;;;;24.70;55.80;;;;;;5095577;28;19924;-63
2023/06/25 12:35:33;;;;;;;;;;;24.70;55.80;;;;;;5113740;28;20053;-62
2023/06/25 12:37:58;;;;;;;;;;;24.70;55.80;;;;;;5129695;27;19931;-62
2023/06/25 12:40:24;;;;;;;;;;;24.70;55.70;;;;;;5078801;28;19920;-62
2023/06/25 12:42:49;;;;;;;;;;;24.70;55.70;;;;;;5114160;28;20018;-62
2023/06/25 12:45:17;;;;;;;;;;;24.70;55.70;;;;;;5095699;28;19923;-62
2023/06/25 12:47:42;;;;;;;;;;;24.70;55.70;;;;;;5095695;28;19971;-62
2023/06/25 12:50:10;;;;;;;;;;;24.70;55.60;;;;;;5095315;28;20404;-62
2023/06/25 12:52:36;;;;;;;;;;;24.70;55.60;;;;;;5113446;28;19989;-62
2023/06/25 12:55:04;;;;;;;;;;;24.80;55.60;;;;;;5095497;28;20032;-62
2023/06/25 12:57:30;;;;;;;;;;;24.80;55.70;;;;;;5095199;28;19927;-62
2023/06/25 12:59:55;;;;;;;;;;;24.80;55.60;;;;;;5113483;28;19924;-62
2023/06/25 13:02:20;;;;;;;;;;;24.80;55.50;;;;;;5129501;27;19920;-62
2023/06/25 13:04:46;;;;;;;;;;;24.80;55.50;;;;;;5129208;27;19993;-61
2023/06/25 13:07:11;;;;;;;;;;;24.80;55.50;;;;;;5129433;27;20002;-61
2023/06/25 13:09:37;;;;;;;;;;;24.80;56.50;;;;;;5095238;28;19942;-62
2023/06/25 13:12:04;;;;;;;;;;;24.90;55.60;;;;;;5094967;28;20359;-62
2023/06/25 13:14:30;;;;;;;;;;;24.90;55.50;;;;;;5095204;28;20282;-62
2023/06/25 13:16:55;;;;;;;;;;;24.90;55.50;;;;;;5095252;28;19973;-61
2023/06/25 13:19:20;;;;;;;;;;;24.90;55.50;;;;;;5128797;27;19951;-62
2023/06/25 13:21:46;;;;;;;;;;;24.90;55.50;;;;;;5112960;28;19986;-61
2023/06/25 13:24:12;;;;;;;;;;;24.90;55.50;;;;;;5128842;27;19928;-62
2023/06/25 13:26:38;;;;;;;;;;;24.90;55.40;;;;;;5095004;28;19943;-62
2023/06/25 13:29:03;;;;;;;;;;;24.90;55.40;;;;;;5094764;28;19920;-61
2023/06/25 13:31:29;;;;;;;;;;;24.90;55.40;;;;;;5112680;28;19931;-64
2023/06/25 13:33:54;;;;;;;;;;;24.90;55.30;;;;;;5094615;28;19930;-62
2023/06/25 13:36:20;;;;;;;;;;;25.00;55.40;;;;;;5094762;28;19943;-62
2023/06/25 13:38:45;;;;;;;;;;;25.00;55.40;;;;;;5112835;28;20053;-64
2023/06/25 13:41:10;;;;;;;;;;;24.90;55.30;;;;;;5094852;28;19920;-62
2023/06/25 13:43:36;;;;;;;;;;;25.00;55.30;;;;;;5094910;28;19920;-62
2023/06/25 13:46:02;;;;;;;;;;;25.00;55.30;;;;;;5094797;28;19959;-64
2023/06/25 13:48:28;;;;;;;;;;;25.00;55.30;;;;;;5094802;28;20435;-62
2023/06/25 13:50:54;;;;;;;;;;;25.00;55.30;;;;;;5094893;28;19998;-61
2023/06/25 13:53:20;;;;;;;;;;;25.00;55.30;;;;;;5112475;28;20011;-62
2023/06/25 13:55:45;;;;;;;;;;;25.00;55.20;;;;;;5112716;28;19977;-62
2023/06/25 13:58:11;;;;;;;;;;;25.10;55.30;;;;;;5094288;28;19973;-62
2023/06/25 14:00:36;;;;;;;;;;;25.10;55.30;;;;;;5094696;28;20348;-62
2023/06/25 14:03:05;;;;;;;;;;;25.10;55.30;;;;;;5094671;28;19920;-62
2023/06/25 14:05:35;;;;;;;;;;;25.10;55.30;;;;;;5094382;28;19920;-64
2023/06/25 14:08:02;;;;;;;;;;;25.10;55.20;;;;;;5094491;28;20443;-64